createdAt,value
2018-07-23T00:01:15.136Z,78.13
2018-07-23T00:03:43.494Z,75.90
2018-07-23T00:06:11.882Z,78.13
2018-07-23T00:08:40.163Z,80.17
2018-07-23T00:11:08.481Z,82.23
2018-07-23T00:13:36.744Z,89.77
2018-07-23T00:16:05.104Z,82.87
2018-07-23T00:18:33.301Z,86.93
2018-07-23T00:21:01.747Z,89.63
2018-07-23T00:23:30.049Z,81.93
2018-07-23T00:25:58.335Z,85.03
2018-07-23T00:28:26.670Z,96.57
2018-07-23T00:30:54.969Z,82.07
2018-07-23T00:33:23.281Z,88.90
2018-07-23T00:35:51.611Z,90.60
2018-07-23T00:38:19.938Z,91.27
2018-07-23T00:40:48.236Z,90.90
2018-07-23T00:43:16.611Z,97.53
2018-07-23T00:45:45.006Z,99.30
2018-07-23T00:48:13.279Z,99.20
2018-07-23T00:50:41.537Z,87.63
2018-07-23T00:53:09.797Z,77.03
2018-07-23T00:55:38.036Z,72.77
2018-07-23T00:58:06.345Z,77.20
2018-07-23T01:00:34.564Z,67.70
2018-07-23T01:03:05.671Z,105.93
2018-07-23T01:05:34.723Z,79.43
2018-07-23T01:08:03.124Z,84.43
2018-07-23T01:10:31.482Z,86.37
2018-07-23T01:12:59.710Z,79.90
2018-07-23T01:15:28.110Z,77.03
2018-07-23T01:17:56.367Z,74.47
2018-07-23T01:20:24.743Z,87.53
2018-07-23T01:22:53.082Z,74.00
2018-07-23T01:25:21.313Z,92.60
2018-07-23T01:27:49.710Z,77.47
2018-07-23T01:30:18.007Z,83.07
2018-07-23T01:32:46.327Z,89.90
2018-07-23T01:35:14.687Z,79.27
2018-07-23T01:37:42.992Z,84.80
2018-07-23T01:40:11.309Z,79.63
2018-07-23T01:42:39.626Z,80.07
2018-07-23T01:45:08.013Z,83.93
2018-07-23T01:47:36.290Z,83.33
2018-07-23T01:50:04.660Z,77.10
2018-07-23T01:52:32.947Z,89.80
2018-07-23T01:55:01.533Z,91.20
2018-07-23T01:57:29.804Z,105.93
2018-07-23T01:59:58.197Z,87.70
2018-07-23T02:02:26.600Z,73.93
2018-07-23T02:04:54.934Z,90.80
2018-07-23T02:07:23.256Z,100.90
2018-07-23T02:09:51.554Z,87.77
2018-07-23T02:12:19.974Z,91.40
2018-07-23T02:14:48.259Z,101.87
2018-07-23T02:17:16.584Z,99.27
2018-07-23T02:19:44.897Z,101.23
2018-07-23T02:22:13.379Z,102.73
2018-07-23T02:24:41.679Z,116.20
2018-07-23T02:27:09.954Z,101.77
2018-07-23T02:29:38.299Z,98.27
2018-07-23T02:32:06.564Z,110.13
2018-07-23T02:34:34.930Z,105.63
2018-07-23T02:37:03.205Z,107.20
2018-07-23T02:39:31.538Z,93.50
2018-07-23T02:41:59.797Z,92.33
2018-07-23T02:44:28.490Z,96.30
2018-07-23T02:46:57.082Z,96.70
2018-07-23T02:49:25.333Z,89.53
2018-07-23T02:51:53.625Z,94.80
2018-07-23T02:54:22.218Z,88.97
2018-07-23T02:56:50.604Z,166.63
2018-07-23T02:59:18.898Z,106.53
2018-07-23T03:01:47.175Z,97.60
2018-07-23T03:04:15.655Z,88.90
2018-07-23T03:06:43.977Z,117.50
2018-07-23T03:09:12.282Z,110.30
2018-07-23T03:11:40.587Z,112.20
2018-07-23T03:14:08.945Z,108.53
2018-07-23T03:16:38.684Z,100.50
2018-07-23T03:19:06.937Z,92.17
2018-07-23T03:21:35.249Z,97.63
2018-07-23T03:24:03.598Z,100.87
2018-07-23T03:26:31.887Z,89.43
2018-07-23T03:29:00.223Z,109.30
2018-07-23T03:31:28.549Z,98.23
2018-07-23T03:33:58.004Z,93.37
2018-07-23T03:36:26.374Z,103.40
2018-07-23T03:38:54.657Z,84.53
2018-07-23T03:41:23.037Z,82.07
2018-07-23T03:43:51.333Z,73.77
2018-07-23T03:46:19.604Z,81.87
2018-07-23T03:48:47.966Z,78.40
2018-07-23T03:51:16.321Z,81.77
2018-07-23T03:53:44.671Z,80.20
2018-07-23T03:56:12.918Z,67.30
2018-07-23T03:58:41.347Z,73.17
2018-07-23T04:01:09.647Z,71.27
2018-07-23T04:03:38.224Z,83.43
2018-07-23T04:06:06.849Z,109.53
2018-07-23T04:08:35.063Z,83.83
2018-07-23T04:11:03.429Z,73.30
2018-07-23T04:13:31.961Z,84.50
2018-07-23T04:16:00.363Z,74.77
2018-07-23T04:18:28.657Z,87.00
2018-07-23T04:20:56.981Z,106.17
2018-07-23T04:23:25.253Z,154.00
2018-07-23T04:25:53.531Z,148.13
2018-07-23T04:28:22.010Z,96.27
2018-07-23T04:30:50.302Z,94.50
2018-07-23T04:33:18.658Z,80.97
2018-07-23T04:35:46.939Z,81.70
2018-07-23T04:38:15.237Z,76.43
2018-07-23T04:40:44.198Z,71.43
2018-07-23T04:43:12.491Z,73.17
2018-07-23T04:45:40.758Z,73.30
2018-07-23T04:48:09.127Z,83.93
2018-07-23T04:50:37.501Z,73.37
2018-07-23T04:53:06.890Z,76.33
2018-07-23T04:55:35.151Z,71.07
2018-07-23T04:58:03.511Z,56.13
2018-07-23T05:00:31.811Z,64.43
2018-07-23T05:03:00.470Z,49.00
2018-07-23T05:05:28.723Z,55.07
2018-07-23T05:07:58.654Z,55.77
2018-07-23T05:10:26.974Z,53.60
2018-07-23T05:12:55.356Z,48.27
2018-07-23T05:15:23.713Z,54.40
2018-07-23T05:17:51.973Z,47.93
2018-07-23T05:20:20.254Z,42.07
2018-07-23T05:22:48.682Z,46.97
2018-07-23T05:25:17.080Z,47.60
2018-07-23T05:27:45.421Z,39.67
2018-07-23T05:30:13.775Z,42.87
2018-07-23T05:32:42.140Z,37.87
2018-07-23T05:35:10.530Z,34.10
2018-07-23T05:37:40.085Z,29.60
2018-07-23T05:40:08.398Z,30.50
2018-07-23T05:42:36.662Z,38.33
2018-07-23T05:45:05.551Z,33.60
2018-07-23T05:47:33.846Z,32.37
2018-07-23T05:50:02.162Z,28.77
2018-07-23T05:52:30.538Z,26.30
2018-07-23T05:54:58.833Z,31.33
2018-07-23T05:57:27.113Z,42.47
2018-07-23T05:59:55.417Z,29.13
2018-07-23T06:02:23.781Z,40.50
2018-07-23T06:04:52.068Z,48.63
2018-07-23T06:07:20.374Z,26.10
2018-07-23T06:09:48.641Z,33.43
2018-07-23T06:12:16.914Z,36.10
2018-07-23T06:14:45.299Z,44.43
2018-07-23T06:17:13.751Z,34.77
2018-07-23T06:19:42.049Z,33.63
2018-07-23T06:22:10.349Z,31.50
2018-07-23T06:24:38.700Z,33.77
2018-07-23T06:27:07.043Z,24.30
2018-07-23T06:29:35.284Z,25.70
2018-07-23T06:32:03.593Z,59.90
2018-07-23T06:34:31.851Z,44.60
2018-07-23T06:37:00.117Z,29.83
2018-07-23T06:39:28.560Z,26.90
2018-07-23T06:41:56.883Z,42.30
2018-07-23T06:44:25.241Z,30.13
2018-07-23T06:46:53.568Z,28.30
2018-07-23T06:49:21.915Z,36.23
2018-07-23T06:51:50.314Z,27.77
2018-07-23T06:54:18.575Z,27.00
2018-07-23T06:56:46.982Z,35.00
2018-07-23T06:59:15.339Z,23.13
2018-07-23T07:01:43.589Z,23.90
2018-07-23T07:04:11.805Z,43.23
2018-07-23T07:06:40.219Z,28.57
2018-07-23T07:09:09.858Z,32.10
2018-07-23T07:11:38.197Z,26.87
2018-07-23T07:14:07.055Z,43.23
2018-07-23T07:16:35.281Z,25.97
2018-07-23T07:19:03.592Z,23.00
2018-07-23T07:21:31.953Z,28.17
2018-07-23T07:24:00.289Z,28.87
2018-07-23T07:26:28.590Z,18.57
2018-07-23T07:28:56.836Z,22.67
2018-07-23T07:31:25.130Z,44.43
2018-07-23T07:33:53.389Z,25.60
2018-07-23T07:36:21.711Z,24.20
2018-07-23T07:38:50.029Z,31.70
2018-07-23T07:41:18.410Z,21.87
2018-07-23T07:43:46.683Z,23.73
2018-07-23T07:46:14.992Z,26.60
2018-07-23T07:48:43.260Z,37.20
2018-07-23T07:51:11.652Z,20.87
2018-07-23T07:53:39.955Z,23.03
2018-07-23T07:56:08.314Z,18.30
2018-07-23T07:58:36.574Z,32.17
2018-07-23T08:01:04.945Z,41.00
2018-07-23T08:03:33.291Z,23.47
2018-07-23T08:06:01.568Z,21.90
2018-07-23T08:08:30.851Z,34.23
2018-07-23T08:10:59.143Z,23.27
2018-07-23T08:13:27.555Z,37.27
2018-07-23T08:15:55.844Z,31.03
2018-07-23T08:18:24.130Z,39.67
2018-07-23T08:20:52.447Z,44.00
2018-07-23T08:23:20.761Z,21.60
2018-07-23T08:25:49.000Z,21.17
2018-07-23T08:28:17.267Z,26.47
2018-07-23T08:30:45.556Z,36.53
2018-07-23T08:33:13.826Z,40.07
2018-07-23T08:35:42.136Z,20.60
2018-07-23T08:38:10.420Z,29.13
2018-07-23T08:40:38.671Z,32.90
2018-07-23T08:43:07.203Z,23.80
2018-07-23T08:45:35.470Z,37.40
2018-07-23T08:48:03.735Z,29.07
2018-07-23T08:50:32.073Z,25.70
2018-07-23T08:53:00.400Z,35.73
2018-07-23T08:55:28.807Z,19.33
2018-07-23T08:57:57.310Z,29.73
2018-07-23T09:00:25.678Z,26.03
2018-07-23T09:02:54.063Z,22.83
2018-07-23T09:05:22.399Z,33.47
2018-07-23T09:07:50.722Z,23.20
2018-07-23T09:10:19.123Z,18.00
2018-07-23T09:12:47.426Z,29.23
2018-07-23T09:15:15.744Z,36.90
2018-07-23T09:17:44.077Z,25.80
2018-07-23T09:20:12.378Z,21.73
2018-07-23T09:22:40.627Z,40.63
2018-07-23T09:25:08.950Z,27.57
2018-07-23T09:27:37.218Z,21.10
2018-07-23T09:30:06.573Z,30.37
2018-07-23T09:32:34.912Z,20.07
2018-07-23T09:35:03.340Z,19.03
2018-07-23T09:37:31.675Z,31.37
2018-07-23T09:39:59.945Z,24.20
2018-07-23T09:42:28.261Z,32.23
2018-07-23T09:44:56.771Z,33.57
2018-07-23T09:47:25.062Z,32.70
2018-07-23T09:49:53.331Z,28.03
2018-07-23T09:52:21.591Z,33.43
2018-07-23T09:54:49.885Z,38.23
2018-07-23T09:57:18.283Z,34.07
2018-07-23T09:59:46.539Z,29.37
2018-07-23T10:02:14.851Z,26.27
2018-07-23T10:04:43.172Z,19.60
2018-07-23T10:07:11.434Z,26.13
2018-07-23T10:09:39.733Z,20.93
2018-07-23T10:12:08.155Z,23.13
2018-07-23T10:14:36.484Z,30.57
2018-07-23T10:17:04.983Z,19.23
2018-07-23T10:19:33.343Z,28.53
2018-07-23T10:22:01.673Z,27.27
2018-07-23T10:24:29.916Z,29.27
2018-07-23T10:26:58.178Z,20.53
2018-07-23T10:29:26.538Z,18.33
2018-07-23T10:31:54.846Z,27.20
2018-07-23T10:34:23.150Z,23.20
2018-07-23T10:36:51.459Z,15.50
2018-07-23T10:39:19.780Z,17.67
2018-07-23T10:41:48.064Z,17.37
2018-07-23T10:44:16.367Z,18.23
2018-07-23T10:46:44.760Z,17.50
2018-07-23T10:49:13.133Z,16.37
2018-07-23T10:51:41.445Z,16.80
2018-07-23T10:54:09.788Z,13.83
2018-07-23T10:56:38.204Z,17.37
2018-07-23T10:59:06.563Z,16.50
2018-07-23T11:01:34.857Z,14.47
2018-07-23T11:04:03.234Z,14.80
2018-07-23T11:06:31.513Z,15.13
2018-07-23T11:08:59.895Z,15.33
2018-07-23T11:11:28.196Z,19.03
2018-07-23T11:13:56.520Z,15.73
2018-07-23T11:16:24.779Z,16.63
2018-07-23T11:18:53.408Z,15.43
2018-07-23T11:21:21.745Z,15.67
2018-07-23T11:23:50.067Z,17.40
2018-07-23T11:26:18.451Z,14.10
2018-07-23T11:28:46.735Z,13.60
2018-07-23T11:31:15.012Z,14.10
2018-07-23T11:33:43.300Z,13.57
2018-07-23T11:36:11.712Z,13.47
2018-07-23T11:38:40.004Z,12.70
2018-07-23T11:41:08.316Z,13.07
2018-07-23T11:43:36.602Z,14.03
2018-07-23T11:46:05.019Z,14.27
2018-07-23T11:48:33.353Z,12.47
2018-07-23T11:51:01.719Z,14.03
2018-07-23T11:53:30.111Z,12.73
2018-07-23T11:55:58.388Z,13.93
2018-07-23T11:58:26.905Z,14.40
2018-07-23T12:00:55.295Z,15.40
2018-07-23T12:03:23.619Z,16.93
2018-07-23T12:05:52.186Z,14.77
2018-07-23T12:08:20.514Z,11.80
2018-07-23T12:10:48.821Z,15.30
2018-07-23T12:13:17.140Z,13.93
2018-07-23T12:15:45.568Z,12.70
2018-07-23T12:18:13.859Z,13.73
2018-07-23T12:20:42.215Z,11.00
2018-07-23T12:23:10.552Z,11.97
2018-07-23T12:25:38.799Z,11.50
2018-07-23T12:28:07.252Z,11.00
2018-07-23T12:30:35.614Z,11.33
2018-07-23T12:33:04.099Z,11.17
2018-07-23T12:35:32.477Z,10.33
2018-07-23T12:38:02.523Z,12.27
2018-07-23T12:40:31.000Z,10.37
2018-07-23T12:42:59.327Z,10.03
2018-07-23T12:45:27.679Z,10.47
2018-07-23T12:47:56.031Z,10.57
2018-07-23T12:50:24.499Z,11.10
2018-07-23T12:52:52.904Z,10.37
2018-07-23T12:55:21.369Z,9.93
2018-07-23T12:57:50.275Z,8.57
2018-07-23T13:00:18.860Z,9.30
2018-07-23T13:02:47.463Z,8.90
2018-07-23T13:05:15.730Z,9.17
2018-07-23T13:07:44.011Z,8.80
2018-07-23T13:10:12.442Z,8.70
2018-07-23T13:12:40.742Z,8.63
2018-07-23T13:15:09.056Z,9.73
2018-07-23T13:17:37.589Z,12.20
2018-07-23T13:20:05.956Z,9.50
2018-07-23T13:22:34.369Z,9.80
2018-07-23T13:25:02.805Z,10.43
2018-07-23T13:27:31.282Z,8.97
2018-07-23T13:29:59.763Z,9.20
2018-07-23T13:32:28.255Z,7.87
2018-07-23T13:34:56.516Z,11.70
2018-07-23T13:37:25.010Z,8.97
2018-07-23T13:39:54.435Z,9.83
2018-07-23T13:42:22.760Z,9.07
2018-07-23T13:44:51.351Z,8.93
2018-07-23T13:47:19.595Z,9.40
2018-07-23T13:49:47.891Z,9.77
2018-07-23T13:52:16.126Z,10.53
2018-07-23T13:54:44.473Z,10.27
2018-07-23T13:57:12.795Z,9.10
2018-07-23T13:59:41.042Z,8.67
2018-07-23T14:02:09.642Z,10.40
2018-07-23T14:04:37.920Z,9.17
2018-07-23T14:07:06.217Z,9.20
2018-07-23T14:09:34.528Z,9.93
2018-07-23T14:12:02.802Z,9.77
2018-07-23T14:14:31.119Z,12.03
2018-07-23T14:16:59.383Z,10.87
2018-07-23T14:19:27.745Z,9.80
2018-07-23T14:21:56.047Z,11.43
2018-07-23T14:24:24.295Z,9.80
2018-07-23T14:26:52.652Z,11.07
2018-07-23T14:29:21.055Z,9.93
2018-07-23T14:31:49.667Z,10.83
2018-07-23T14:34:18.587Z,10.03
2018-07-23T14:36:46.894Z,10.03
2018-07-23T14:39:15.192Z,15.70
2018-07-23T14:41:43.617Z,9.50
2018-07-23T14:44:11.967Z,9.37
2018-07-23T14:46:40.594Z,10.73
2018-07-23T14:49:09.085Z,10.77
2018-07-23T14:51:37.924Z,10.70
2018-07-23T14:54:06.540Z,10.50
2018-07-23T14:56:35.166Z,10.83
2018-07-23T14:59:03.647Z,9.93
2018-07-23T15:01:32.451Z,10.23
2018-07-23T15:04:01.055Z,9.80
2018-07-23T15:06:29.488Z,9.60
2018-07-23T15:08:57.883Z,10.50
2018-07-23T15:11:26.159Z,10.60
2018-07-23T15:13:54.538Z,9.50
2018-07-23T15:16:23.028Z,10.40
2018-07-23T15:18:51.334Z,9.40
2018-07-23T15:21:19.728Z,8.37
2018-07-23T15:23:48.265Z,9.40
2018-07-23T15:26:16.662Z,9.07
2018-07-23T15:28:44.920Z,7.90
2018-07-23T15:31:13.292Z,7.63
2018-07-23T15:33:41.540Z,8.57
2018-07-23T15:36:10.045Z,9.07
2018-07-23T15:38:38.467Z,8.70
2018-07-23T15:41:06.665Z,8.43
2018-07-23T15:43:34.924Z,8.10
2018-07-23T15:46:03.269Z,8.70
2018-07-23T15:48:31.653Z,9.13
2018-07-23T15:51:00.139Z,8.53
2018-07-23T15:53:28.504Z,8.40
2018-07-23T15:55:56.864Z,7.60
2018-07-23T15:58:25.290Z,7.47
2018-07-23T16:00:53.704Z,7.60
2018-07-23T16:03:22.073Z,8.27
2018-07-23T16:05:50.485Z,9.27
2018-07-23T16:08:18.757Z,7.93
2018-07-23T16:10:47.134Z,8.03
2018-07-23T16:13:15.638Z,8.13
2018-07-23T16:15:43.924Z,7.97
2018-07-23T16:18:12.290Z,8.40
2018-07-23T16:20:40.531Z,9.83
2018-07-23T16:23:08.838Z,8.83
2018-07-23T16:25:37.379Z,8.50
2018-07-23T16:28:05.848Z,8.70
2018-07-23T16:30:34.207Z,8.50
2018-07-23T16:33:02.486Z,7.97
2018-07-23T16:35:30.744Z,8.90
2018-07-23T16:37:58.993Z,8.87
2018-07-23T16:40:27.423Z,8.00
2018-07-23T16:42:55.734Z,9.33
2018-07-23T16:45:24.170Z,8.37
2018-07-23T16:47:52.430Z,9.30
2018-07-23T16:50:20.776Z,8.50
2018-07-23T16:52:49.074Z,8.60
2018-07-23T16:55:17.317Z,9.60
2018-07-23T16:57:45.595Z,10.73
2018-07-23T17:00:13.973Z,8.63
2018-07-23T17:02:42.280Z,8.93
2018-07-23T17:05:10.597Z,8.93
2018-07-23T17:07:38.919Z,9.60
2018-07-23T17:10:07.331Z,9.70
2018-07-23T17:12:35.579Z,10.17
2018-07-23T17:15:03.922Z,10.67
2018-07-23T17:17:32.203Z,10.07
2018-07-23T17:20:00.671Z,9.40
2018-07-23T17:22:29.061Z,9.70
2018-07-23T17:24:57.587Z,7.80
2018-07-23T17:27:26.051Z,9.03
2018-07-23T17:29:54.376Z,9.17
2018-07-23T17:32:22.692Z,9.40
2018-07-23T17:34:51.120Z,9.40
2018-07-23T17:37:19.431Z,9.20
2018-07-23T17:39:47.743Z,10.07
2018-07-23T17:42:16.347Z,9.77
2018-07-23T17:44:44.702Z,9.50
2018-07-23T17:47:13.207Z,9.80
2018-07-23T17:49:41.612Z,9.67
2018-07-23T17:52:09.988Z,10.47
2018-07-23T17:54:38.317Z,9.67
2018-07-23T17:57:06.602Z,10.03
2018-07-23T17:59:34.854Z,9.17
2018-07-23T18:02:03.174Z,9.03
2018-07-23T18:04:31.771Z,9.90
2018-07-23T18:07:00.260Z,10.60
2018-07-23T18:09:28.608Z,10.50
2018-07-23T18:11:56.898Z,12.80
2018-07-23T18:14:25.152Z,14.57
2018-07-23T18:16:53.460Z,13.27
2018-07-23T18:19:21.852Z,13.80
2018-07-23T18:21:50.147Z,12.53
2018-07-23T18:24:18.492Z,16.33
2018-07-23T18:26:46.838Z,14.20
2018-07-23T18:29:15.113Z,12.90
2018-07-23T18:31:43.467Z,13.00
2018-07-23T18:34:11.873Z,21.77
2018-07-23T18:36:40.150Z,14.63
2018-07-23T18:39:10.095Z,15.00
2018-07-23T18:41:38.558Z,16.33
2018-07-23T18:44:07.098Z,30.43
2018-07-23T18:46:35.548Z,45.00
2018-07-23T18:49:25.318Z,28.27
2018-07-23T18:51:54.401Z,26.97
2018-07-23T18:54:24.236Z,24.03
2018-07-23T18:56:54.473Z,15.23
2018-07-23T18:59:22.775Z,16.50
2018-07-23T19:01:51.997Z,19.63
2018-07-23T19:04:20.495Z,27.57
2018-07-23T19:06:49.179Z,29.90
2018-07-23T19:09:18.709Z,17.17
2018-07-23T19:11:48.221Z,15.83
2018-07-23T19:14:16.967Z,19.17
2018-07-23T19:16:45.875Z,22.67
2018-07-23T19:19:14.239Z,26.70
2018-07-23T19:21:42.484Z,29.57
2018-07-23T19:24:11.059Z,31.33
2018-07-23T19:26:39.411Z,30.93
2018-07-23T19:29:07.767Z,22.77
2018-07-23T19:31:36.108Z,22.57
2018-07-23T19:34:05.024Z,22.20
2018-07-23T19:36:33.416Z,23.63
2018-07-23T19:39:01.831Z,18.63
2018-07-23T19:41:30.583Z,17.53
2018-07-23T19:43:59.081Z,17.57
2018-07-23T19:46:27.403Z,19.27
2018-07-23T19:48:55.879Z,19.73
2018-07-23T19:51:24.174Z,15.73
2018-07-23T19:53:52.487Z,18.13
2018-07-23T19:56:20.973Z,15.63
2018-07-23T19:58:49.375Z,17.50
2018-07-23T20:01:18.003Z,15.90
2018-07-23T20:03:46.477Z,15.67
2018-07-23T20:06:19.387Z,14.60
2018-07-23T20:08:48.469Z,15.27
2018-07-23T20:11:17.386Z,17.63
2018-07-23T20:13:45.795Z,20.10
2018-07-23T20:16:14.466Z,20.07
2018-07-23T20:18:42.931Z,18.83
2018-07-23T20:21:11.364Z,19.00
2018-07-23T20:23:39.876Z,20.23
2018-07-23T20:26:08.454Z,23.20
2018-07-23T20:28:37.308Z,20.80
2018-07-23T20:31:06.090Z,22.40
2018-07-23T20:33:34.515Z,21.43
2018-07-23T20:36:03.505Z,21.43
2018-07-23T20:38:31.743Z,21.13
2018-07-23T20:41:00.270Z,21.10
2018-07-23T20:43:29.445Z,24.33
2018-07-23T20:45:58.425Z,34.70
2018-07-23T20:48:26.803Z,28.70
2018-07-23T20:50:55.638Z,26.47
2018-07-23T20:53:23.919Z,25.30
2018-07-23T20:55:52.248Z,24.70
2018-07-23T20:58:20.583Z,25.60
2018-07-23T21:00:49.089Z,29.50
2018-07-23T21:03:17.593Z,26.87
2018-07-23T21:05:46.077Z,26.90
2018-07-23T21:08:14.437Z,32.47
2018-07-23T21:10:42.828Z,28.20
2018-07-23T21:13:11.268Z,23.70
2018-07-23T21:15:39.730Z,27.63
2018-07-23T21:18:08.403Z,25.77
2018-07-23T21:20:37.063Z,26.33
2018-07-23T21:23:05.596Z,28.57
2018-07-23T21:25:33.987Z,25.53
2018-07-23T21:28:02.364Z,27.30
2018-07-23T21:30:30.740Z,34.87
2018-07-23T21:32:59.364Z,28.23
2018-07-23T21:35:27.832Z,26.47
2018-07-23T21:37:56.287Z,23.00
2018-07-23T21:40:24.976Z,30.63
2018-07-23T21:42:56.025Z,28.27
2018-07-23T21:45:25.771Z,33.23
2018-07-23T21:47:55.826Z,25.53
2018-07-23T21:50:24.965Z,21.90
2018-07-23T21:52:53.378Z,20.93
2018-07-23T21:55:21.661Z,23.67
2018-07-23T21:57:49.918Z,22.87
2018-07-23T22:00:18.288Z,24.20
2018-07-23T22:02:46.770Z,27.00
2018-07-23T22:05:15.270Z,23.50
2018-07-23T22:07:44.008Z,23.70
2018-07-23T22:10:14.756Z,22.77
2018-07-23T22:12:43.054Z,24.00
2018-07-23T22:15:12.464Z,27.13
2018-07-23T22:17:42.209Z,24.80
2018-07-23T22:20:10.507Z,26.10
2018-07-23T22:22:41.003Z,26.37
2018-07-23T22:25:09.340Z,29.60
2018-07-23T22:27:37.621Z,37.33
2018-07-23T22:30:06.303Z,25.93
2018-07-23T22:32:34.624Z,27.33
2018-07-23T22:35:02.907Z,26.67
2018-07-23T22:37:31.161Z,25.03
2018-07-23T22:39:59.449Z,32.37
2018-07-23T22:42:29.398Z,27.40
2018-07-23T22:44:57.674Z,25.33
2018-07-23T22:47:25.893Z,25.80
2018-07-23T22:49:54.160Z,24.97
2018-07-23T22:52:22.449Z,30.30
2018-07-23T22:54:50.724Z,27.10
2018-07-23T22:57:19.024Z,25.63
2018-07-23T22:59:47.449Z,27.77
2018-07-23T23:02:15.719Z,28.33
2018-07-23T23:04:44.003Z,26.83
2018-07-23T23:07:12.289Z,26.27
2018-07-23T23:09:40.729Z,30.50
2018-07-23T23:12:09.046Z,29.43
2018-07-23T23:14:37.281Z,26.43
2018-07-23T23:17:05.586Z,30.23
2018-07-23T23:19:33.850Z,26.80
2018-07-23T23:22:02.240Z,29.60
2018-07-23T23:24:30.441Z,30.10
2018-07-23T23:26:58.834Z,26.90
2018-07-23T23:29:27.088Z,25.87
2018-07-23T23:31:55.323Z,28.70
2018-07-23T23:34:23.592Z,28.73
2018-07-23T23:36:51.913Z,27.70
2018-07-23T23:39:20.286Z,28.37
2018-07-23T23:41:48.608Z,30.03
2018-07-23T23:44:16.840Z,29.53
2018-07-23T23:46:45.130Z,29.10
2018-07-23T23:49:13.390Z,31.67
2018-07-23T23:51:41.662Z,30.93
2018-07-23T23:54:10.001Z,32.37
2018-07-23T23:56:38.270Z,41.43
2018-07-23T23:59:06.571Z,34.63
